sensor_id;sensor_type;location;lat;lon;timestamp;P1;durP1;ratioP1;P2;durP2;ratioP2
47617;SDS011;33336;36.728;-4.414;2022-11-11T00:02:21;9.52;;;1.50;;
47617;SDS011;33336;36.728;-4.414;2022-11-11T00:07:25;3.83;;;1.48;;
47617;SDS011;33336;36.728;-4.414;2022-11-11T00:12:28;4.38;;;1.20;;
47617;SDS011;33336;36.728;-4.414;2022-11-11T00:17:31;4.75;;;1.10;;
47617;SDS011;33336;36.728;-4.414;2022-11-11T00:22:54;5.72;;;1.27;;
47617;SDS011;33336;36.728;-4.414;2022-11-11T00:28:15;5.03;;;1.20;;
47617;SDS011;33336;36.728;-4.414;2022-11-11T00:33:19;11.77;;;1.73;;
47617;SDS011;33336;36.728;-4.414;2022-11-11T00:38:23;6.47;;;1.60;;
47617;SDS011;33336;36.728;-4.414;2022-11-11T00:43:44;4.22;;;1.23;;
47617;SDS011;33336;36.728;-4.414;2022-11-11T00:48:48;5.15;;;1.10;;
47617;SDS011;33336;36.728;-4.414;2022-11-11T00:54:10;4.90;;;1.10;;
47617;SDS011;33336;36.728;-4.414;2022-11-11T00:59:13;8.90;;;1.50;;
47617;SDS011;33336;36.728;-4.414;2022-11-11T01:04:17;8.90;;;1.85;;
47617;SDS011;33336;36.728;-4.414;2022-11-11T01:09:21;8.23;;;1.55;;
47617;SDS011;33336;36.728;-4.414;2022-11-11T01:14:24;5.93;;;1.25;;
47617;SDS011;33336;36.728;-4.414;2022-11-11T01:19:27;7.95;;;1.60;;
47617;SDS011;33336;36.728;-4.414;2022-11-11T01:24:32;6.82;;;1.20;;
47617;SDS011;33336;36.728;-4.414;2022-11-11T01:29:35;10.73;;;2.20;;
47617;SDS011;33336;36.728;-4.414;2022-11-11T01:34:38;8.00;;;1.75;;
47617;SDS011;33336;36.728;-4.414;2022-11-11T01:39:42;9.85;;;1.90;;
47617;SDS011;33336;36.728;-4.414;2022-11-11T01:44:46;4.93;;;1.40;;
47617;SDS011;33336;36.728;-4.414;2022-11-11T01:49:50;4.88;;;1.23;;
47617;SDS011;33336;36.728;-4.414;2022-11-11T01:54:59;5.28;;;1.20;;
47617;SDS011;33336;36.728;-4.414;2022-11-11T02:00:07;10.95;;;1.55;;
47617;SDS011;33336;36.728;-4.414;2022-11-11T02:05:13;8.27;;;1.67;;
47617;SDS011;33336;36.728;-4.414;2022-11-11T02:10:36;5.72;;;1.15;;
47617;SDS011;33336;36.728;-4.414;2022-11-11T02:15:41;5.88;;;2.33;;
47617;SDS011;33336;36.728;-4.414;2022-11-11T02:20:45;4.05;;;1.17;;
47617;SDS011;33336;36.728;-4.414;2022-11-11T02:25:49;8.73;;;1.40;;
47617;SDS011;33336;36.728;-4.414;2022-11-11T02:30:54;11.90;;;1.52;;
47617;SDS011;33336;36.728;-4.414;2022-11-11T02:35:57;8.70;;;1.40;;
47617;SDS011;33336;36.728;-4.414;2022-11-11T02:41:03;10.27;;;1.23;;
47617;SDS011;33336;36.728;-4.414;2022-11-11T02:46:23;12.85;;;1.20;;
47617;SDS011;33336;36.728;-4.414;2022-11-11T02:51:27;8.40;;;1.48;;
47617;SDS011;33336;36.728;-4.414;2022-11-11T02:56:31;7.85;;;1.50;;
47617;SDS011;33336;36.728;-4.414;2022-11-11T03:01:52;7.03;;;1.75;;
47617;SDS011;33336;36.728;-4.414;2022-11-11T03:06:54;4.15;;;1.35;;
47617;SDS011;33336;36.728;-4.414;2022-11-11T03:11:59;4.90;;;1.25;;
47617;SDS011;33336;36.728;-4.414;2022-11-11T03:17:02;5.65;;;1.30;;
47617;SDS011;33336;36.728;-4.414;2022-11-11T03:22:24;4.88;;;0.73;;
47617;SDS011;33336;36.728;-4.414;2022-11-11T03:27:28;4.20;;;1.30;;
47617;SDS011;33336;36.728;-4.414;2022-11-11T03:32:32;8.95;;;1.40;;
47617;SDS011;33336;36.728;-4.414;2022-11-11T03:37:34;5.28;;;1.30;;
47617;SDS011;33336;36.728;-4.414;2022-11-11T03:42:57;3.42;;;1.23;;
47617;SDS011;33336;36.728;-4.414;2022-11-11T03:48:00;6.00;;;1.50;;
47617;SDS011;33336;36.728;-4.414;2022-11-11T03:53:03;8.05;;;1.60;;
47617;SDS011;33336;36.728;-4.414;2022-11-11T03:58:07;4.72;;;1.20;;
47617;SDS011;33336;36.728;-4.414;2022-11-11T04:03:11;8.40;;;1.63;;
47617;SDS011;33336;36.728;-4.414;2022-11-11T04:08:32;4.55;;;1.13;;
47617;SDS011;33336;36.728;-4.414;2022-11-11T04:13:54;3.28;;;0.90;;
47617;SDS011;33336;36.728;-4.414;2022-11-11T04:19:17;3.75;;;1.40;;
47617;SDS011;33336;36.728;-4.414;2022-11-11T04:24:42;6.63;;;1.25;;
47617;SDS011;33336;36.728;-4.414;2022-11-11T04:30:05;5.85;;;1.67;;
47617;SDS011;33336;36.728;-4.414;2022-11-11T04:35:10;5.00;;;1.20;;
47617;SDS011;33336;36.728;-4.414;2022-11-11T04:40:14;5.40;;;1.40;;
47617;SDS011;33336;36.728;-4.414;2022-11-11T04:45:36;6.88;;;1.67;;
47617;SDS011;33336;36.728;-4.414;2022-11-11T04:50:39;5.35;;;1.38;;
47617;SDS011;33336;36.728;-4.414;2022-11-11T04:55:43;2.88;;;1.20;;
47617;SDS011;33336;36.728;-4.414;2022-11-11T05:01:06;7.63;;;1.48;;
47617;SDS011;33336;36.728;-4.414;2022-11-11T05:06:09;5.47;;;1.60;;
47617;SDS011;33336;36.728;-4.414;2022-11-11T05:11:40;6.15;;;1.75;;
47617;SDS011;33336;36.728;-4.414;2022-11-11T05:16:45;6.82;;;1.58;;
47617;SDS011;33336;36.728;-4.414;2022-11-11T05:22:08;5.65;;;1.13;;
47617;SDS011;33336;36.728;-4.414;2022-11-11T05:27:14;4.20;;;1.27;;
47617;SDS011;33336;36.728;-4.414;2022-11-11T05:32:19;4.10;;;1.17;;
47617;SDS011;33336;36.728;-4.414;2022-11-11T05:37:23;5.95;;;1.30;;
47617;SDS011;33336;36.728;-4.414;2022-11-11T05:42:26;9.40;;;6.40;;
47617;SDS011;33336;36.728;-4.414;2022-11-11T05:47:30;10.68;;;2.00;;
47617;SDS011;33336;36.728;-4.414;2022-11-11T05:52:33;7.20;;;2.38;;
47617;SDS011;33336;36.728;-4.414;2022-11-11T05:57:35;9.52;;;2.47;;
47617;SDS011;33336;36.728;-4.414;2022-11-11T06:02:40;9.65;;;1.95;;
47617;SDS011;33336;36.728;-4.414;2022-11-11T06:07:43;3.70;;;1.27;;
47617;SDS011;33336;36.728;-4.414;2022-11-11T06:12:46;8.02;;;2.70;;
47617;SDS011;33336;36.728;-4.414;2022-11-11T06:18:08;6.38;;;2.42;;
47617;SDS011;33336;36.728;-4.414;2022-11-11T06:23:12;7.05;;;1.63;;
47617;SDS011;33336;36.728;-4.414;2022-11-11T06:28:15;5.50;;;1.35;;
47617;SDS011;33336;36.728;-4.414;2022-11-11T06:33:20;5.45;;;1.23;;
47617;SDS011;33336;36.728;-4.414;2022-11-11T06:38:23;3.78;;;1.10;;
47617;SDS011;33336;36.728;-4.414;2022-11-11T06:43:27;4.38;;;1.23;;
47617;SDS011;33336;36.728;-4.414;2022-11-11T06:48:31;6.45;;;1.13;;
47617;SDS011;33336;36.728;-4.414;2022-11-11T06:53:36;5.82;;;1.50;;
47617;SDS011;33336;36.728;-4.414;2022-11-11T06:58:38;7.80;;;1.92;;
47617;SDS011;33336;36.728;-4.414;2022-11-11T07:03:43;4.40;;;1.13;;
47617;SDS011;33336;36.728;-4.414;2022-11-11T07:08:46;7.07;;;2.10;;
47617;SDS011;33336;36.728;-4.414;2022-11-11T07:13:50;9.48;;;1.40;;
47617;SDS011;33336;36.728;-4.414;2022-11-11T07:18:54;7.72;;;3.20;;
47617;SDS011;33336;36.728;-4.414;2022-11-11T07:23:58;7.25;;;1.48;;
47617;SDS011;33336;36.728;-4.414;2022-11-11T07:29:00;5.40;;;1.48;;
47617;SDS011;33336;36.728;-4.414;2022-11-11T07:34:05;5.47;;;1.80;;
47617;SDS011;33336;36.728;-4.414;2022-11-11T07:39:08;6.72;;;1.40;;
47617;SDS011;33336;36.728;-4.414;2022-11-11T07:44:12;7.93;;;1.70;;
47617;SDS011;33336;36.728;-4.414;2022-11-11T07:49:16;7.93;;;1.30;;
47617;SDS011;33336;36.728;-4.414;2022-11-11T07:54:20;10.75;;;1.88;;
47617;SDS011;33336;36.728;-4.414;2022-11-11T07:59:22;5.65;;;1.75;;
47617;SDS011;33336;36.728;-4.414;2022-11-11T08:04:27;4.05;;;1.60;;
47617;SDS011;33336;36.728;-4.414;2022-11-11T08:09:30;10.48;;;1.90;;
47617;SDS011;33336;36.728;-4.414;2022-11-11T08:14:32;6.47;;;1.70;;
47617;SDS011;33336;36.728;-4.414;2022-11-11T08:19:37;11.95;;;2.25;;
47617;SDS011;33336;36.728;-4.414;2022-11-11T08:24:40;13.30;;;2.80;;
47617;SDS011;33336;36.728;-4.414;2022-11-11T08:29:42;8.50;;;2.22;;
47617;SDS011;33336;36.728;-4.414;2022-11-11T08:34:47;7.25;;;1.77;;
47617;SDS011;33336;36.728;-4.414;2022-11-11T08:39:50;4.78;;;1.17;;
47617;SDS011;33336;36.728;-4.414;2022-11-11T08:44:53;4.45;;;1.33;;
47617;SDS011;33336;36.728;-4.414;2022-11-11T08:49:58;7.75;;;2.35;;
47617;SDS011;33336;36.728;-4.414;2022-11-11T08:55:00;9.57;;;2.53;;
47617;SDS011;33336;36.728;-4.414;2022-11-11T09:00:04;16.17;;;3.10;;
47617;SDS011;33336;36.728;-4.414;2022-11-11T09:05:10;22.42;;;4.00;;
47617;SDS011;33336;36.728;-4.414;2022-11-11T09:10:13;19.25;;;4.28;;
47617;SDS011;33336;36.728;-4.414;2022-11-11T09:15:16;12.75;;;2.80;;
47617;SDS011;33336;36.728;-4.414;2022-11-11T09:20:21;11.63;;;2.35;;
47617;SDS011;33336;36.728;-4.414;2022-11-11T09:25:24;9.43;;;2.08;;
47617;SDS011;33336;36.728;-4.414;2022-11-11T09:30:28;8.00;;;2.30;;
47617;SDS011;33336;36.728;-4.414;2022-11-11T09:35:33;12.85;;;2.88;;
47617;SDS011;33336;36.728;-4.414;2022-11-11T09:40:39;8.70;;;2.00;;
47617;SDS011;33336;36.728;-4.414;2022-11-11T09:45:54;3.83;;;1.38;;
47617;SDS011;33336;36.728;-4.414;2022-11-11T09:51:14;8.10;;;1.63;;
47617;SDS011;33336;36.728;-4.414;2022-11-11T09:56:22;9.85;;;1.77;;
47617;SDS011;33336;36.728;-4.414;2022-11-11T10:01:28;9.60;;;1.70;;
47617;SDS011;33336;36.728;-4.414;2022-11-11T10:06:39;6.05;;;1.20;;
47617;SDS011;33336;36.728;-4.414;2022-11-11T10:11:44;25.13;;;2.72;;
47617;SDS011;33336;36.728;-4.414;2022-11-11T10:16:53;7.65;;;1.25;;
47617;SDS011;33336;36.728;-4.414;2022-11-11T10:22:08;9.95;;;1.50;;
47617;SDS011;33336;36.728;-4.414;2022-11-11T10:27:21;6.40;;;1.55;;
47617;SDS011;33336;36.728;-4.414;2022-11-11T10:32:25;8.05;;;1.42;;
47617;SDS011;33336;36.728;-4.414;2022-11-11T10:37:34;3.65;;;1.00;;
47617;SDS011;33336;36.728;-4.414;2022-11-11T10:42:40;6.90;;;1.70;;
47617;SDS011;33336;36.728;-4.414;2022-11-11T10:47:44;5.93;;;1.85;;
47617;SDS011;33336;36.728;-4.414;2022-11-11T10:52:55;10.18;;;1.30;;
47617;SDS011;33336;36.728;-4.414;2022-11-11T10:58:06;8.55;;;0.95;;
47617;SDS011;33336;36.728;-4.414;2022-11-11T11:03:13;2.47;;;0.60;;
47617;SDS011;33336;36.728;-4.414;2022-11-11T11:08:25;4.07;;;0.85;;
47617;SDS011;33336;36.728;-4.414;2022-11-11T11:13:32;2.63;;;0.88;;
47617;SDS011;33336;36.728;-4.414;2022-11-11T11:18:42;5.30;;;0.90;;
47617;SDS011;33336;36.728;-4.414;2022-11-11T11:23:47;2.88;;;0.60;;
47617;SDS011;33336;36.728;-4.414;2022-11-11T11:28:51;7.15;;;1.27;;
47617;SDS011;33336;36.728;-4.414;2022-11-11T11:33:55;4.28;;;0.85;;
47617;SDS011;33336;36.728;-4.414;2022-11-11T11:39:01;4.15;;;0.95;;
47617;SDS011;33336;36.728;-4.414;2022-11-11T11:44:15;2.72;;;1.15;;
47617;SDS011;33336;36.728;-4.414;2022-11-11T11:49:30;2.15;;;0.68;;
47617;SDS011;33336;36.728;-4.414;2022-11-11T11:54:48;2.10;;;1.13;;
47617;SDS011;33336;36.728;-4.414;2022-11-11T11:59:57;5.68;;;0.98;;
47617;SDS011;33336;36.728;-4.414;2022-11-11T12:05:07;5.95;;;1.15;;
47617;SDS011;33336;36.728;-4.414;2022-11-11T12:10:23;2.60;;;1.27;;
47617;SDS011;33336;36.728;-4.414;2022-11-11T12:20:39;9.20;;;1.55;;
47617;SDS011;33336;36.728;-4.414;2022-11-11T12:25:53;3.88;;;0.63;;
47617;SDS011;33336;36.728;-4.414;2022-11-11T12:31:15;2.10;;;0.60;;
47617;SDS011;33336;36.728;-4.414;2022-11-11T12:36:28;4.85;;;0.85;;
47617;SDS011;33336;36.728;-4.414;2022-11-11T12:41:44;11.05;;;1.55;;
47617;SDS011;33336;36.728;-4.414;2022-11-11T12:47:01;5.28;;;1.30;;
47617;SDS011;33336;36.728;-4.414;2022-11-11T12:52:22;4.82;;;0.80;;
47617;SDS011;33336;36.728;-4.414;2022-11-11T12:57:40;2.92;;;0.80;;
47617;SDS011;33336;36.728;-4.414;2022-11-11T13:03:05;4.53;;;1.13;;
47617;SDS011;33336;36.728;-4.414;2022-11-11T13:08:30;5.67;;;1.10;;
47617;SDS011;33336;36.728;-4.414;2022-11-11T13:14:03;7.30;;;1.30;;
47617;SDS011;33336;36.728;-4.414;2022-11-11T13:19:23;4.53;;;1.05;;
47617;SDS011;33336;36.728;-4.414;2022-11-11T13:24:33;2.92;;;0.90;;
47617;SDS011;33336;36.728;-4.414;2022-11-11T13:29:45;2.50;;;0.80;;
47617;SDS011;33336;36.728;-4.414;2022-11-11T13:35:01;5.88;;;1.25;;
47617;SDS011;33336;36.728;-4.414;2022-11-11T13:40:18;5.25;;;0.90;;
47617;SDS011;33336;36.728;-4.414;2022-11-11T13:45:38;4.88;;;1.35;;
47617;SDS011;33336;36.728;-4.414;2022-11-11T13:50:43;7.82;;;1.63;;
47617;SDS011;33336;36.728;-4.414;2022-11-11T13:55:46;6.32;;;1.40;;
47617;SDS011;33336;36.728;-4.414;2022-11-11T14:00:56;5.03;;;1.40;;
47617;SDS011;33336;36.728;-4.414;2022-11-11T14:06:27;4.13;;;1.10;;
47617;SDS011;33336;36.728;-4.414;2022-11-11T14:11:45;6.75;;;2.60;;
47617;SDS011;33336;36.728;-4.414;2022-11-11T14:16:59;4.95;;;1.20;;
47617;SDS011;33336;36.728;-4.414;2022-11-11T14:22:21;5.03;;;1.33;;
47617;SDS011;33336;36.728;-4.414;2022-11-11T14:27:32;4.95;;;1.27;;
47617;SDS011;33336;36.728;-4.414;2022-11-11T14:32:39;5.20;;;1.33;;
47617;SDS011;33336;36.728;-4.414;2022-11-11T14:37:59;5.38;;;0.82;;
47617;SDS011;33336;36.728;-4.414;2022-11-11T14:43:33;4.88;;;0.95;;
47617;SDS011;33336;36.728;-4.414;2022-11-11T14:48:59;5.88;;;1.10;;
47617;SDS011;33336;36.728;-4.414;2022-11-11T14:54:04;8.68;;;1.23;;
47617;SDS011;33336;36.728;-4.414;2022-11-11T14:59:10;7.03;;;0.93;;
47617;SDS011;33336;36.728;-4.414;2022-11-11T15:04:19;6.30;;;1.42;;
47617;SDS011;33336;36.728;-4.414;2022-11-11T15:09:31;7.75;;;1.40;;
47617;SDS011;33336;36.728;-4.414;2022-11-11T15:14:56;4.93;;;1.15;;
47617;SDS011;33336;36.728;-4.414;2022-11-11T15:20:11;7.70;;;1.50;;
47617;SDS011;33336;36.728;-4.414;2022-11-11T15:25:33;8.00;;;1.25;;
47617;SDS011;33336;36.728;-4.414;2022-11-11T15:30:52;3.70;;;1.25;;
47617;SDS011;33336;36.728;-4.414;2022-11-11T15:36:07;6.80;;;2.00;;
47617;SDS011;33336;36.728;-4.414;2022-11-11T15:41:20;7.72;;;1.63;;
47617;SDS011;33336;36.728;-4.414;2022-11-11T15:46:26;6.97;;;1.63;;
47617;SDS011;33336;36.728;-4.414;2022-11-11T15:51:33;7.65;;;2.15;;
47617;SDS011;33336;36.728;-4.414;2022-11-11T15:56:38;7.82;;;1.83;;
47617;SDS011;33336;36.728;-4.414;2022-11-11T16:01:41;10.60;;;2.55;;
47617;SDS011;33336;36.728;-4.414;2022-11-11T16:06:47;8.15;;;2.88;;
47617;SDS011;33336;36.728;-4.414;2022-11-11T16:11:50;7.10;;;1.90;;
47617;SDS011;33336;36.728;-4.414;2022-11-11T16:16:57;6.25;;;2.13;;
47617;SDS011;33336;36.728;-4.414;2022-11-11T16:22:05;10.85;;;2.40;;
47617;SDS011;33336;36.728;-4.414;2022-11-11T16:27:13;10.18;;;2.10;;
47617;SDS011;33336;36.728;-4.414;2022-11-11T16:32:30;8.38;;;2.30;;
47617;SDS011;33336;36.728;-4.414;2022-11-11T16:37:50;8.37;;;1.97;;
47617;SDS011;33336;36.728;-4.414;2022-11-11T16:48:37;12.57;;;2.58;;
47617;SDS011;33336;36.728;-4.414;2022-11-11T16:53:51;14.45;;;3.10;;
47617;SDS011;33336;36.728;-4.414;2022-11-11T16:58:59;10.40;;;2.80;;
47617;SDS011;33336;36.728;-4.414;2022-11-11T17:04:06;7.53;;;2.20;;
47617;SDS011;33336;36.728;-4.414;2022-11-11T17:14:32;11.82;;;2.72;;
47617;SDS011;33336;36.728;-4.414;2022-11-11T17:19:36;11.50;;;2.42;;
47617;SDS011;33336;36.728;-4.414;2022-11-11T17:24:41;13.80;;;3.60;;
47617;SDS011;33336;36.728;-4.414;2022-11-11T17:29:43;16.65;;;3.47;;
47617;SDS011;33336;36.728;-4.414;2022-11-11T17:34:47;15.60;;;3.55;;
47617;SDS011;33336;36.728;-4.414;2022-11-11T17:39:52;29.00;;;4.75;;
47617;SDS011;33336;36.728;-4.414;2022-11-11T17:44:55;17.08;;;4.35;;
47617;SDS011;33336;36.728;-4.414;2022-11-11T17:49:58;20.77;;;5.28;;
47617;SDS011;33336;36.728;-4.414;2022-11-11T17:55:03;15.68;;;4.05;;
47617;SDS011;33336;36.728;-4.414;2022-11-11T18:00:07;18.55;;;4.03;;
47617;SDS011;33336;36.728;-4.414;2022-11-11T18:05:11;17.27;;;3.95;;
47617;SDS011;33336;36.728;-4.414;2022-11-11T18:10:16;33.38;;;4.63;;
47617;SDS011;33336;36.728;-4.414;2022-11-11T18:15:19;19.55;;;4.93;;
47617;SDS011;33336;36.728;-4.414;2022-11-11T18:20:22;18.92;;;5.43;;
47617;SDS011;33336;36.728;-4.414;2022-11-11T18:25:26;20.02;;;5.07;;
47617;SDS011;33336;36.728;-4.414;2022-11-11T18:30:29;19.33;;;4.95;;
47617;SDS011;33336;36.728;-4.414;2022-11-11T18:35:32;27.90;;;5.00;;
47617;SDS011;33336;36.728;-4.414;2022-11-11T18:40:38;34.00;;;5.70;;
47617;SDS011;33336;36.728;-4.414;2022-11-11T18:45:40;30.05;;;5.43;;
47617;SDS011;33336;36.728;-4.414;2022-11-11T18:50:51;20.58;;;5.70;;
47617;SDS011;33336;36.728;-4.414;2022-11-11T18:55:59;20.85;;;5.57;;
47617;SDS011;33336;36.728;-4.414;2022-11-11T19:01:06;27.13;;;6.13;;
47617;SDS011;33336;36.728;-4.414;2022-11-11T19:06:10;32.17;;;6.95;;
47617;SDS011;33336;36.728;-4.414;2022-11-11T19:11:14;39.13;;;7.38;;
47617;SDS011;33336;36.728;-4.414;2022-11-11T19:16:18;27.98;;;8.88;;
47617;SDS011;33336;36.728;-4.414;2022-11-11T19:21:23;28.08;;;6.63;;
47617;SDS011;33336;36.728;-4.414;2022-11-11T19:26:29;17.90;;;6.60;;
47617;SDS011;33336;36.728;-4.414;2022-11-11T19:31:32;24.13;;;7.15;;
47617;SDS011;33336;36.728;-4.414;2022-11-11T19:36:35;24.30;;;8.13;;
47617;SDS011;33336;36.728;-4.414;2022-11-11T19:41:39;18.52;;;5.95;;
47617;SDS011;33336;36.728;-4.414;2022-11-11T19:46:42;25.20;;;7.07;;
47617;SDS011;33336;36.728;-4.414;2022-11-11T19:51:45;25.25;;;8.25;;
47617;SDS011;33336;36.728;-4.414;2022-11-11T19:56:50;24.55;;;6.63;;
47617;SDS011;33336;36.728;-4.414;2022-11-11T20:01:53;32.58;;;8.23;;
47617;SDS011;33336;36.728;-4.414;2022-11-11T20:06:56;24.23;;;7.60;;
47617;SDS011;33336;36.728;-4.414;2022-11-11T20:12:01;26.77;;;8.55;;
47617;SDS011;33336;36.728;-4.414;2022-11-11T20:17:04;26.70;;;8.60;;
47617;SDS011;33336;36.728;-4.414;2022-11-11T20:22:07;26.98;;;8.40;;
47617;SDS011;33336;36.728;-4.414;2022-11-11T20:27:13;27.08;;;8.20;;
47617;SDS011;33336;36.728;-4.414;2022-11-11T20:32:15;32.42;;;8.18;;
47617;SDS011;33336;36.728;-4.414;2022-11-11T20:37:19;19.10;;;6.18;;
47617;SDS011;33336;36.728;-4.414;2022-11-11T20:42:23;20.30;;;6.32;;
47617;SDS011;33336;36.728;-4.414;2022-11-11T20:47:27;27.05;;;8.07;;
47617;SDS011;33336;36.728;-4.414;2022-11-11T20:52:30;17.65;;;5.50;;
47617;SDS011;33336;36.728;-4.414;2022-11-11T20:57:35;18.27;;;5.55;;
47617;SDS011;33336;36.728;-4.414;2022-11-11T21:02:38;19.45;;;5.28;;
47617;SDS011;33336;36.728;-4.414;2022-11-11T21:07:42;14.70;;;5.43;;
47617;SDS011;33336;36.728;-4.414;2022-11-11T21:12:46;19.48;;;4.35;;
47617;SDS011;33336;36.728;-4.414;2022-11-11T21:17:50;13.60;;;4.30;;
47617;SDS011;33336;36.728;-4.414;2022-11-11T21:22:53;20.80;;;5.38;;
47617;SDS011;33336;36.728;-4.414;2022-11-11T21:27:58;20.27;;;5.03;;
47617;SDS011;33336;36.728;-4.414;2022-11-11T21:33:05;19.20;;;5.20;;
47617;SDS011;33336;36.728;-4.414;2022-11-11T21:38:08;18.70;;;4.43;;
47617;SDS011;33336;36.728;-4.414;2022-11-11T21:43:12;15.90;;;5.57;;
47617;SDS011;33336;36.728;-4.414;2022-11-11T21:48:15;19.15;;;5.10;;
47617;SDS011;33336;36.728;-4.414;2022-11-11T21:53:18;22.23;;;4.78;;
47617;SDS011;33336;36.728;-4.414;2022-11-11T21:58:22;9.07;;;3.78;;
47617;SDS011;33336;36.728;-4.414;2022-11-11T22:03:26;16.35;;;3.72;;
47617;SDS011;33336;36.728;-4.414;2022-11-11T22:08:29;11.85;;;4.75;;
47617;SDS011;33336;36.728;-4.414;2022-11-11T22:13:34;13.52;;;4.68;;
47617;SDS011;33336;36.728;-4.414;2022-11-11T22:18:39;15.82;;;3.80;;
47617;SDS011;33336;36.728;-4.414;2022-11-11T22:23:44;21.55;;;4.80;;
47617;SDS011;33336;36.728;-4.414;2022-11-11T22:28:50;14.40;;;4.03;;
47617;SDS011;33336;36.728;-4.414;2022-11-11T22:33:54;14.15;;;3.83;;
47617;SDS011;33336;36.728;-4.414;2022-11-11T22:38:59;14.60;;;4.55;;
47617;SDS011;33336;36.728;-4.414;2022-11-11T22:44:04;16.05;;;4.72;;
47617;SDS011;33336;36.728;-4.414;2022-11-11T22:49:10;15.27;;;4.28;;
47617;SDS011;33336;36.728;-4.414;2022-11-11T22:54:16;16.55;;;5.32;;
47617;SDS011;33336;36.728;-4.414;2022-11-11T22:59:23;15.38;;;4.05;;
47617;SDS011;33336;36.728;-4.414;2022-11-11T23:04:28;11.68;;;4.47;;
47617;SDS011;33336;36.728;-4.414;2022-11-11T23:09:31;13.95;;;4.10;;
47617;SDS011;33336;36.728;-4.414;2022-11-11T23:14:40;14.68;;;3.80;;
47617;SDS011;33336;36.728;-4.414;2022-11-11T23:19:44;22.75;;;4.55;;
47617;SDS011;33336;36.728;-4.414;2022-11-11T23:24:47;9.73;;;3.50;;
47617;SDS011;33336;36.728;-4.414;2022-11-11T23:29:51;10.45;;;3.25;;
47617;SDS011;33336;36.728;-4.414;2022-11-11T23:34:54;18.23;;;3.60;;
47617;SDS011;33336;36.728;-4.414;2022-11-11T23:39:57;13.02;;;3.70;;
47617;SDS011;33336;36.728;-4.414;2022-11-11T23:45:02;15.70;;;4.30;;
47617;SDS011;33336;36.728;-4.414;2022-11-11T23:50:06;13.57;;;3.38;;
47617;SDS011;33336;36.728;-4.414;2022-11-11T23:55:09;12.35;;;3.55;;
